GXWJN EINN-CYYT
Flight info
| Callsign | GXWJN |
|---|---|
| Flight time | N/A |
| Altitude | 36000 |
| Route | LUPOR DCT LEKVA DCT ADARA/M077F360 DCT 5130N02000W 5030N03000W 4930N04000W 4830N05000W DCT MUSAK/N0428F360 DCT TIGOR TIGOR5 |
| Aircraft | B736/M-SDE2E3FGHIRWXY/LB1 |
Departure
| Time | 2026-04-30 20:02 |
|---|---|
| Airport | Shannon Airport (EINN) |
Arrival
| Time | N/A |
|---|---|
| Airport | St. John's International Airport (CYYT) |
| Time | Latitude | Longitude | Altitude | Speed | Heading |
|---|---|---|---|---|---|
| 2026-04-30 19:35 | 52.69256 | -8.91742 | 40 ft | 0 kts | 218° |
| 2026-04-30 19:52 | 52.69260 | -8.91736 | 40 ft | 2 kts | 216° |
| 2026-04-30 19:52 | 52.69273 | -8.91719 | 37 ft | 2 kts | 221° |
| 2026-04-30 19:52 | 52.69285 | -8.91700 | 37 ft | 2 kts | 232° |
| 2026-04-30 19:53 | 52.69290 | -8.91675 | 37 ft | 2 kts | 292° |
| 2026-04-30 19:53 | 52.69286 | -8.91661 | 39 ft | 1 kts | 307° |
| 2026-04-30 19:53 | 52.69285 | -8.91661 | 39 ft | 0 kts | 307° |
| 2026-04-30 19:56 | 52.69298 | -8.91688 | 37 ft | 10 kts | 309° |
| 2026-04-30 19:56 | 52.69391 | -8.91769 | 37 ft | 18 kts | 336° |
| 2026-04-30 19:57 | 52.69449 | -8.91937 | 40 ft | 17 kts | 283° |
| 2026-04-30 19:57 | 52.69475 | -8.92126 | 39 ft | 17 kts | 286° |
| 2026-04-30 19:57 | 52.69519 | -8.92299 | 39 ft | 16 kts | 298° |
| 2026-04-30 19:57 | 52.69587 | -8.92438 | 41 ft | 15 kts | 315° |
| 2026-04-30 19:58 | 52.69662 | -8.92559 | 41 ft | 15 kts | 316° |
| 2026-04-30 19:58 | 52.69736 | -8.92678 | 42 ft | 17 kts | 315° |
| 2026-04-30 19:58 | 52.69835 | -8.92841 | 42 ft | 21 kts | 315° |
| 2026-04-30 19:58 | 52.69927 | -8.93026 | 43 ft | 21 kts | 274° |
| 2026-04-30 19:59 | 52.69848 | -8.93221 | 44 ft | 21 kts | 227° |
| 2026-04-30 19:59 | 52.69762 | -8.93404 | 45 ft | 20 kts | 233° |
| 2026-04-30 19:59 | 52.69597 | -8.93754 | 47 ft | 19 kts | 235° |
| 2026-04-30 20:00 | 52.69519 | -8.93920 | 51 ft | 18 kts | 230° |
| 2026-04-30 20:00 | 52.69441 | -8.94080 | 53 ft | 18 kts | 233° |
| 2026-04-30 20:00 | 52.69353 | -8.94216 | 49 ft | 17 kts | 202° |
| 2026-04-30 20:00 | 52.69293 | -8.94291 | 51 ft | 4 kts | 283° |
| 2026-04-30 20:01 | 52.69365 | -8.94247 | 53 ft | 13 kts | 66° |
| 2026-04-30 20:01 | 52.69453 | -8.94061 | 53 ft | 50 kts | 52° |
| 2026-04-30 20:01 | 52.69868 | -8.93176 | 44 ft | 142 kts | 52° |
| 2026-04-30 20:02 | 52.71532 | -8.89613 | 665 ft | 214 kts | 54° |
| 2026-04-30 20:02 | 52.72457 | -8.87684 | 1313 ft | 210 kts | 54° |
| 2026-04-30 20:03 | 52.74357 | -8.84007 | 2426 ft | 228 kts | 53° |
| 2026-04-30 20:03 | 52.75414 | -8.81954 | 2954 ft | 237 kts | 53° |
| 2026-04-30 20:03 | 52.76472 | -8.79844 | 3651 ft | 239 kts | 53° |
| 2026-04-30 20:03 | 52.77642 | -8.77890 | 4196 ft | 251 kts | 31° |
| 2026-04-30 20:04 | 52.79383 | -8.77229 | 4648 ft | 272 kts | 355° |
| 2026-04-30 20:04 | 52.81171 | -8.78359 | 5068 ft | 283 kts | 323° |
| 2026-04-30 20:04 | 52.82421 | -8.80816 | 5066 ft | 279 kts | 293° |
| 2026-04-30 20:05 | 52.82396 | -8.86951 | 6247 ft | 270 kts | 243° |
| 2026-04-30 20:05 | 52.81564 | -8.89716 | 7153 ft | 268 kts | 237° |
| 2026-04-30 20:05 | 52.79682 | -8.95124 | 8770 ft | 274 kts | 234° |
| 2026-04-30 20:06 | 52.78726 | -8.97863 | 9609 ft | 276 kts | 234° |
| 2026-04-30 20:06 | 52.77766 | -9.00644 | 10351 ft | 282 kts | 234° |
| 2026-04-30 20:06 | 52.77110 | -9.02550 | 10527 ft | 297 kts | 234° |
| 2026-04-30 20:06 | 52.76053 | -9.05636 | 10774 ft | 318 kts | 235° |
| 2026-04-30 20:07 | 52.74951 | -9.08884 | 11343 ft | 328 kts | 236° |
| 2026-04-30 20:07 | 52.73837 | -9.12199 | 12073 ft | 332 kts | 236° |
| 2026-04-30 20:07 | 52.71577 | -9.18937 | 13579 ft | 340 kts | 235° |
| 2026-04-30 20:08 | 52.70424 | -9.22370 | 14316 ft | 344 kts | 235° |
| 2026-04-30 20:08 | 52.69257 | -9.25841 | 15008 ft | 348 kts | 235° |
| 2026-04-30 20:08 | 52.68076 | -9.29348 | 15718 ft | 351 kts | 234° |
| 2026-04-30 20:08 | 52.66883 | -9.32885 | 16409 ft | 356 kts | 234° |
| 2026-04-30 20:09 | 52.65671 | -9.36473 | 17112 ft | 360 kts | 234° |
| 2026-04-30 20:09 | 52.64442 | -9.40104 | 17796 ft | 365 kts | 234° |
| 2026-04-30 20:09 | 52.61938 | -9.47490 | 19089 ft | 373 kts | 233° |
| 2026-04-30 20:10 | 52.59390 | -9.54990 | 20398 ft | 378 kts | 233° |
| 2026-04-30 20:10 | 52.58115 | -9.58737 | 21025 ft | 381 kts | 233° |
| 2026-04-30 20:10 | 52.56797 | -9.62600 | 21669 ft | 384 kts | 232° |
| 2026-04-30 20:11 | 52.54205 | -9.70279 | 22938 ft | 392 kts | 236° |
| 2026-04-30 20:11 | 52.53160 | -9.74485 | 23549 ft | 401 kts | 241° |
| 2026-04-30 20:11 | 52.52201 | -9.78826 | 24081 ft | 405 kts | 242° |
| 2026-04-30 20:12 | 52.50306 | -9.87623 | 25096 ft | 412 kts | 242° |
| 2026-04-30 20:12 | 52.49344 | -9.92063 | 25601 ft | 414 kts | 242° |
| 2026-04-30 20:12 | 52.48367 | -9.96538 | 26095 ft | 417 kts | 241° |
| 2026-04-30 20:13 | 52.47378 | -10.01028 | 26565 ft | 421 kts | 241° |
| 2026-04-30 20:13 | 52.46375 | -10.05554 | 27031 ft | 424 kts | 241° |
| 2026-04-30 20:13 | 52.45360 | -10.10116 | 27491 ft | 427 kts | 241° |
| 2026-04-30 20:13 | 52.44336 | -10.14702 | 27937 ft | 430 kts | 241° |
| 2026-04-30 20:14 | 52.43314 | -10.19263 | 28362 ft | 434 kts | 241° |
| 2026-04-30 20:14 | 52.42268 | -10.23922 | 28788 ft | 437 kts | 241° |
| 2026-04-30 20:14 | 52.41213 | -10.28613 | 29205 ft | 440 kts | 241° |
| 2026-04-30 20:14 | 52.40149 | -10.33331 | 29601 ft | 444 kts | 241° |
| 2026-04-30 20:15 | 52.39074 | -10.38085 | 29987 ft | 447 kts | 241° |
| 2026-04-30 20:15 | 52.37989 | -10.42880 | 30326 ft | 450 kts | 241° |
| 2026-04-30 20:15 | 52.36896 | -10.47695 | 30675 ft | 452 kts | 241° |
| 2026-04-30 20:15 | 52.35802 | -10.52518 | 31150 ft | 451 kts | 242° |
| 2026-04-30 20:16 | 52.34716 | -10.57301 | 31687 ft | 447 kts | 242° |
| 2026-04-30 20:16 | 52.33633 | -10.62056 | 32171 ft | 445 kts | 242° |
| 2026-04-30 20:16 | 52.32549 | -10.66794 | 32578 ft | 445 kts | 242° |
| 2026-04-30 20:16 | 52.31462 | -10.71526 | 32947 ft | 445 kts | 242° |
| 2026-04-30 20:17 | 52.30371 | -10.76264 | 33356 ft | 444 kts | 242° |
| 2026-04-30 20:17 | 52.29284 | -10.80980 | 33783 ft | 443 kts | 242° |
| 2026-04-30 20:17 | 52.28197 | -10.85681 | 34150 ft | 442 kts | 242° |
| 2026-04-30 20:17 | 52.27107 | -10.90386 | 34420 ft | 443 kts | 243° |
| 2026-04-30 20:18 | 52.26012 | -10.95100 | 34664 ft | 444 kts | 243° |
| 2026-04-30 20:18 | 52.24916 | -10.99806 | 34941 ft | 444 kts | 243° |
| 2026-04-30 20:18 | 52.23832 | -11.04457 | 35226 ft | 444 kts | 243° |
| 2026-04-30 20:18 | 52.22733 | -11.09163 | 35474 ft | 444 kts | 243° |
| 2026-04-30 20:19 | 52.21631 | -11.13869 | 35729 ft | 444 kts | 243° |
| 2026-04-30 20:19 | 52.20528 | -11.18568 | 35993 ft | 444 kts | 244° |
| 2026-04-30 20:19 | 52.19415 | -11.23298 | 36005 ft | 449 kts | 244° |
| 2026-04-30 20:20 | 52.17167 | -11.32818 | 36015 ft | 449 kts | 244° |
| 2026-04-30 20:20 | 52.14973 | -11.42094 | 36014 ft | 443 kts | 244° |
| 2026-04-30 20:21 | 52.12745 | -11.51453 | 36025 ft | 443 kts | 244° |
| 2026-04-30 20:21 | 52.10522 | -11.60748 | 36026 ft | 443 kts | 244° |
| 2026-04-30 20:22 | 52.08275 | -11.70104 | 36027 ft | 444 kts | 244° |
| 2026-04-30 20:22 | 52.06020 | -11.79454 | 36022 ft | 445 kts | 244° |
| 2026-04-30 20:23 | 52.03751 | -11.88825 | 36028 ft | 446 kts | 244° |
| 2026-04-30 20:23 | 52.01470 | -11.98207 | 36028 ft | 447 kts | 244° |
| 2026-04-30 20:24 | 51.99778 | -12.05138 | 36027 ft | 448 kts | 244° |
| 2026-04-30 20:24 | 51.97486 | -12.14491 | 36022 ft | 449 kts | 245° |
| 2026-04-30 20:25 | 51.94007 | -12.28618 | 36022 ft | 450 kts | 245° |
| 2026-04-30 20:26 | 51.90501 | -12.42760 | 36021 ft | 451 kts | 245° |
| 2026-04-30 20:26 | 51.86971 | -12.56910 | 36019 ft | 452 kts | 245° |
| 2026-04-30 20:27 | 51.82238 | -12.75742 | 36016 ft | 452 kts | 245° |
| 2026-04-30 20:28 | 51.77472 | -12.94545 | 36017 ft | 452 kts | 245° |
| 2026-04-30 20:30 | 51.71485 | -13.17946 | 36021 ft | 452 kts | 245° |
| 2026-04-30 20:31 | 51.64217 | -13.46032 | 36021 ft | 453 kts | 245° |
| 2026-04-30 20:32 | 51.58108 | -13.69374 | 36022 ft | 453 kts | 245° |
| 2026-04-30 20:33 | 51.54410 | -13.83390 | 36021 ft | 455 kts | 245° |
| 2026-04-30 20:34 | 51.50813 | -13.97438 | 36007 ft | 457 kts | 253° |
| 2026-04-30 20:34 | 51.49891 | -14.07509 | 36021 ft | 458 kts | 269° |
| 2026-04-30 20:35 | 51.49910 | -14.12624 | 36026 ft | 458 kts | 270° |
| 2026-04-30 20:35 | 51.50059 | -14.27983 | 36027 ft | 459 kts | 270° |
| 2026-04-30 20:36 | 51.50098 | -14.38242 | 36027 ft | 459 kts | 270° |
| 2026-04-30 20:37 | 51.50103 | -14.53644 | 36031 ft | 460 kts | 270° |
| 2026-04-30 20:37 | 51.50099 | -14.58773 | 36029 ft | 460 kts | 270° |